createdAt,value
2019-05-18T00:00:58.030Z,22.97
2019-05-18T00:06:03.269Z,25.17
2019-05-18T00:11:08.611Z,23.57
2019-05-18T00:16:13.888Z,23.33
2019-05-18T00:21:19.183Z,22.53
2019-05-18T00:26:24.501Z,23.17
2019-05-18T00:31:29.801Z,22.73
2019-05-18T00:36:35.371Z,21.87
2019-05-18T00:41:40.571Z,24.20
2019-05-18T00:46:45.966Z,24.60
2019-05-18T00:51:51.385Z,22.53
2019-05-18T00:56:56.631Z,24.47
2019-05-18T01:02:01.954Z,24.00
2019-05-18T01:07:07.099Z,25.37
2019-05-18T01:12:12.572Z,26.97
2019-05-18T01:17:18.011Z,26.30
2019-05-18T01:22:23.352Z,26.03
2019-05-18T01:27:28.824Z,24.57
2019-05-18T01:32:34.180Z,33.60
2019-05-18T01:37:39.842Z,40.17
2019-05-18T01:42:45.512Z,29.03
2019-05-18T01:47:50.972Z,26.03
2019-05-18T01:52:56.734Z,25.53
2019-05-18T01:58:01.960Z,25.57
2019-05-18T02:03:07.185Z,24.33
2019-05-18T02:08:12.631Z,24.70
2019-05-18T02:13:17.979Z,26.47
2019-05-18T02:18:29.073Z,31.37
2019-05-18T02:23:30.135Z,33.67
2019-05-18T02:28:35.483Z,28.53
2019-05-18T02:33:40.951Z,27.23
2019-05-18T02:38:46.343Z,25.80
2019-05-18T02:43:51.682Z,24.87
2019-05-18T02:48:57.016Z,24.47
2019-05-18T02:54:02.475Z,23.53
2019-05-18T02:59:07.933Z,24.53
2019-05-18T03:04:14.153Z,24.63
2019-05-18T03:09:19.577Z,25.87
2019-05-18T03:14:24.886Z,24.50
2019-05-18T03:19:30.112Z,24.63
2019-05-18T03:24:35.759Z,25.10
2019-05-18T03:29:41.014Z,24.30
2019-05-18T03:34:46.236Z,22.63
2019-05-18T03:39:51.334Z,22.87
2019-05-18T03:44:56.807Z,20.27
2019-05-18T03:50:02.354Z,18.13
2019-05-18T03:55:07.824Z,17.70
2019-05-18T04:00:13.110Z,16.37
2019-05-18T04:05:18.531Z,17.73
2019-05-18T04:10:28.102Z,16.77
2019-05-18T04:15:33.185Z,16.00
2019-05-18T04:20:38.684Z,15.77
2019-05-18T04:25:44.275Z,15.70
2019-05-18T04:30:49.674Z,15.20
2019-05-18T04:35:55.131Z,12.67
2019-05-18T04:41:00.492Z,13.53
2019-05-18T04:46:05.640Z,13.53
2019-05-18T04:51:11.118Z,14.60
2019-05-18T04:56:16.469Z,13.47
2019-05-18T05:01:21.871Z,12.47
2019-05-18T05:06:26.950Z,12.47
2019-05-18T05:11:32.091Z,13.70
2019-05-18T05:16:37.235Z,13.47
2019-05-18T05:21:42.468Z,12.50
2019-05-18T05:26:47.959Z,11.70
2019-05-18T05:31:53.311Z,10.70
2019-05-18T05:36:58.476Z,12.63
2019-05-18T05:42:03.710Z,10.90
2019-05-18T05:47:08.908Z,14.00
2019-05-18T05:52:14.218Z,12.57
2019-05-18T05:57:19.586Z,13.40
2019-05-18T06:02:24.835Z,13.90
2019-05-18T06:07:30.216Z,13.73
2019-05-18T06:12:35.691Z,15.70
2019-05-18T06:17:41.021Z,15.97
2019-05-18T06:22:46.457Z,15.30
2019-05-18T06:27:51.598Z,16.07
2019-05-18T06:32:56.825Z,17.00
2019-05-18T06:38:01.903Z,17.57
2019-05-18T06:43:07.078Z,18.03
2019-05-18T06:48:12.326Z,18.57
2019-05-18T06:53:17.488Z,19.47
2019-05-18T06:58:23.808Z,20.93
2019-05-18T07:03:29.376Z,20.73
2019-05-18T07:08:36.278Z,21.27
2019-05-18T07:13:41.715Z,34.47
2019-05-18T07:18:46.875Z,33.47
2019-05-18T07:23:52.028Z,48.23
2019-05-18T07:28:57.380Z,25.60
2019-05-18T07:34:02.628Z,49.93
2019-05-18T07:39:08.610Z,21.03
2019-05-18T07:44:13.816Z,12.73
2019-05-18T07:49:18.878Z,13.57
2019-05-18T07:54:24.394Z,12.27
2019-05-18T07:59:29.838Z,13.67
2019-05-18T08:04:35.112Z,11.73
2019-05-18T08:09:40.552Z,10.80
2019-05-18T08:14:45.715Z,12.73
2019-05-18T08:19:52.957Z,12.97
2019-05-18T08:24:58.284Z,13.63
2019-05-18T08:30:04.129Z,12.87
2019-05-18T08:35:09.917Z,16.13
2019-05-18T08:40:15.607Z,14.10
2019-05-18T08:45:21.045Z,15.33
2019-05-18T08:50:26.146Z,16.33
2019-05-18T08:55:31.310Z,14.77
2019-05-18T09:00:37.012Z,16.03
2019-05-18T09:05:42.784Z,14.60
2019-05-18T09:10:48.172Z,16.83
2019-05-18T09:15:53.561Z,14.40
2019-05-18T09:20:58.948Z,15.03
2019-05-18T09:26:04.547Z,14.43
2019-05-18T09:31:10.378Z,16.27
2019-05-18T09:36:15.568Z,13.93
2019-05-18T09:41:20.904Z,12.80
2019-05-18T09:46:26.266Z,11.53
2019-05-18T09:51:31.468Z,11.57
2019-05-18T09:56:36.683Z,10.37
2019-05-18T10:01:41.940Z,6.83
2019-05-18T10:06:47.041Z,6.23
2019-05-18T10:11:52.248Z,5.53
2019-05-18T10:16:57.556Z,5.93
2019-05-18T10:22:02.917Z,7.40
2019-05-18T10:27:08.125Z,7.43
2019-05-18T10:32:13.348Z,6.60
2019-05-18T10:37:18.695Z,6.63
2019-05-18T10:42:24.074Z,6.53
2019-05-18T10:47:29.454Z,6.80
2019-05-18T10:52:34.760Z,31.43
2019-05-18T10:57:40.068Z,10.37
2019-05-18T11:02:45.421Z,14.00
2019-05-18T11:07:50.736Z,11.73
2019-05-18T11:12:56.183Z,10.90
2019-05-18T11:18:01.398Z,7.30
2019-05-18T11:23:06.905Z,13.47
2019-05-18T11:28:12.203Z,9.10
2019-05-18T11:33:17.379Z,9.50
2019-05-18T11:38:23.129Z,6.73
2019-05-18T11:43:28.251Z,6.17
2019-05-18T11:48:33.595Z,4.63
2019-05-18T11:53:38.922Z,5.00
2019-05-18T11:58:44.067Z,6.17
2019-05-18T12:03:49.186Z,5.07
2019-05-18T12:08:54.371Z,4.40
2019-05-18T12:13:59.491Z,4.80
2019-05-18T12:19:04.772Z,5.10
2019-05-18T12:24:15.609Z,3.20
2019-05-18T12:29:17.650Z,5.27
2019-05-18T12:34:23.814Z,4.30
2019-05-18T12:39:29.201Z,4.23
2019-05-18T12:44:34.598Z,3.70
2019-05-18T12:49:39.769Z,3.40
2019-05-18T12:54:46.950Z,3.80
2019-05-18T12:59:51.822Z,5.70
2019-05-18T13:04:56.931Z,6.90
2019-05-18T13:10:02.079Z,8.20
2019-05-18T13:15:09.581Z,9.40
2019-05-18T13:20:17.124Z,8.50
2019-05-18T13:25:22.776Z,9.80
2019-05-18T13:30:28.093Z,10.27
2019-05-18T13:35:33.397Z,11.43
2019-05-18T13:40:38.741Z,13.63
2019-05-18T13:45:44.070Z,13.53
2019-05-18T13:50:49.416Z,16.30
2019-05-18T13:55:54.780Z,16.23
2019-05-18T14:01:00.159Z,14.30
2019-05-18T14:06:05.722Z,13.97
2019-05-18T14:11:10.964Z,14.97
2019-05-18T14:16:16.187Z,15.20
2019-05-18T14:21:23.156Z,15.23
2019-05-18T14:26:32.174Z,15.87
2019-05-18T14:31:37.530Z,16.53
2019-05-18T14:36:43.091Z,16.53
2019-05-18T14:41:49.771Z,13.80
2019-05-18T14:46:55.004Z,14.00
2019-05-18T14:52:00.399Z,13.63
2019-05-18T14:57:06.002Z,12.73
2019-05-18T15:02:11.619Z,11.17
2019-05-18T15:07:17.092Z,10.80
2019-05-18T15:12:22.388Z,9.73
2019-05-18T15:17:27.749Z,12.33
2019-05-18T15:22:33.832Z,9.75
2019-05-18T15:27:39.340Z,12.90
2019-05-18T15:32:44.668Z,9.27
2019-05-18T15:37:49.878Z,8.38
2019-05-18T15:42:55.406Z,8.30
2019-05-18T15:48:00.880Z,7.27
2019-05-18T15:53:06.282Z,7.53
2019-05-18T15:58:11.900Z,7.37
2019-05-18T16:03:17.211Z,6.62
2019-05-18T16:08:22.470Z,8.20
2019-05-18T16:13:27.956Z,9.87
2019-05-18T16:18:35.507Z,11.57
2019-05-18T16:23:40.899Z,14.73
2019-05-18T16:28:46.341Z,11.47
2019-05-18T16:33:51.663Z,10.77
2019-05-18T16:38:57.025Z,7.70
2019-05-18T16:44:02.942Z,8.97
2019-05-18T16:49:08.457Z,10.90
2019-05-18T16:54:14.621Z,18.77
2019-05-18T16:59:19.915Z,10.33
2019-05-18T17:04:25.258Z,11.93
2019-05-18T17:09:30.483Z,12.37
2019-05-18T17:14:36.174Z,12.03
2019-05-18T17:19:41.546Z,12.87
2019-05-18T17:24:47.009Z,14.80
2019-05-18T17:29:52.212Z,13.50
2019-05-18T17:34:57.722Z,12.47
2019-05-18T17:40:03.197Z,12.23
2019-05-18T17:45:09.269Z,13.23
2019-05-18T17:50:15.975Z,13.50
2019-05-18T17:55:21.283Z,11.57
2019-05-18T18:00:26.778Z,16.77
2019-05-18T18:05:32.415Z,12.33
2019-05-18T18:10:38.100Z,12.60
2019-05-18T18:15:43.613Z,13.43
2019-05-18T18:20:49.166Z,13.97
2019-05-18T18:25:54.584Z,13.80
2019-05-18T18:30:59.944Z,15.73
2019-05-18T18:36:05.498Z,15.20
2019-05-18T18:41:11.089Z,17.03
2019-05-18T18:46:16.629Z,15.03
2019-05-18T18:51:21.952Z,15.40
2019-05-18T18:56:27.560Z,14.87
2019-05-18T19:01:32.701Z,14.33
2019-05-18T19:06:37.956Z,16.17
2019-05-18T19:11:43.142Z,16.00
2019-05-18T19:16:48.395Z,18.70
2019-05-18T19:21:53.512Z,19.70
2019-05-18T19:26:58.815Z,19.90
2019-05-18T19:32:04.045Z,20.37
2019-05-18T19:37:09.326Z,22.73
2019-05-18T19:42:14.620Z,20.60
2019-05-18T19:47:19.874Z,21.27
2019-05-18T19:52:25.104Z,19.50
2019-05-18T19:57:30.324Z,19.20
2019-05-18T20:02:35.605Z,18.60
2019-05-18T20:07:40.831Z,19.27
2019-05-18T20:12:46.185Z,20.23
2019-05-18T20:17:51.411Z,21.50
2019-05-18T20:22:56.779Z,20.20
2019-05-18T20:28:02.115Z,20.33
2019-05-18T20:33:07.479Z,18.50
2019-05-18T20:38:12.982Z,18.23
2019-05-18T20:43:18.226Z,18.43
2019-05-18T20:48:23.629Z,17.97
2019-05-18T20:53:29.059Z,17.67
2019-05-18T20:58:40.155Z,16.93
2019-05-18T21:03:41.568Z,19.07
2019-05-18T21:08:47.084Z,16.67
2019-05-18T21:13:52.556Z,17.13
2019-05-18T21:18:57.814Z,15.47
2019-05-18T21:24:03.291Z,16.63
2019-05-18T21:29:08.832Z,16.40
2019-05-18T21:34:14.073Z,16.43
2019-05-18T21:39:19.388Z,16.80
2019-05-18T21:44:24.914Z,18.37
2019-05-18T21:49:30.265Z,17.23
2019-05-18T21:54:36.864Z,18.70
2019-05-18T21:59:42.444Z,18.53
2019-05-18T22:04:47.880Z,17.53
2019-05-18T22:09:53.877Z,19.80
2019-05-18T22:14:59.520Z,22.90
2019-05-18T22:20:06.209Z,25.70
2019-05-18T22:25:11.568Z,24.53
2019-05-18T22:30:16.825Z,25.37
2019-05-18T22:35:22.154Z,21.83
2019-05-18T22:40:27.498Z,22.87
2019-05-18T22:45:32.895Z,36.90
2019-05-18T22:50:38.369Z,31.77
2019-05-18T22:55:43.846Z,27.33
2019-05-18T23:00:49.287Z,25.93
2019-05-18T23:05:54.730Z,27.13
2019-05-18T23:11:01.267Z,25.43
2019-05-18T23:16:06.647Z,23.93
2019-05-18T23:21:12.142Z,23.33
2019-05-18T23:26:17.610Z,20.53
2019-05-18T23:31:22.864Z,22.60
2019-05-18T23:36:28.220Z,19.93
2019-05-18T23:41:33.675Z,20.33
2019-05-18T23:46:39.043Z,20.50
2019-05-18T23:51:44.191Z,20.37
2019-05-18T23:56:49.655Z,23.00
